sensor_id;sensor_type;location;lat;lon;timestamp;noise_LAeq;noise_LA_min;noise_LA_max;noise_LA01;noise_LA95
78837;Laerm;72468;51.680;5.976;2024-03-22T00:00:19;35.94;30.79;53.72;;
78837;Laerm;72468;51.680;5.976;2024-03-22T00:04:18;35.55;31.07;54.29;;
78837;Laerm;72468;51.680;5.976;2024-03-22T00:08:19;37.52;30.98;57.65;;
78837;Laerm;72468;51.680;5.976;2024-03-22T00:12:18;38.53;30.59;56.97;;
78837;Laerm;72468;51.680;5.976;2024-03-22T00:16:18;35.84;31.03;54.25;;
78837;Laerm;72468;51.680;5.976;2024-03-22T00:20:18;36.92;30.92;54.83;;
78837;Laerm;72468;51.680;5.976;2024-03-22T00:24:18;32.71;31.07;39.54;;
78837;Laerm;72468;51.680;5.976;2024-03-22T00:28:18;32.38;31;35.61;;
78837;Laerm;72468;51.680;5.976;2024-03-22T00:32:18;32.86;30.95;39.99;;
78837;Laerm;72468;51.680;5.976;2024-03-22T00:36:18;33.24;30.85;49.94;;
78837;Laerm;72468;51.680;5.976;2024-03-22T00:40:18;32.66;30.21;53.1;;
78837;Laerm;72468;51.680;5.976;2024-03-22T00:44:18;31.34;29.73;37.25;;
78837;Laerm;72468;51.680;5.976;2024-03-22T00:48:18;32.03;30.07;40.16;;
78837;Laerm;72468;51.680;5.976;2024-03-22T00:52:18;31.98;29.84;40.69;;
78837;Laerm;72468;51.680;5.976;2024-03-22T00:56:18;34.06;30.06;47.64;;
78837;Laerm;72468;51.680;5.976;2024-03-22T01:00:18;34.62;30.34;46.83;;
78837;Laerm;72468;51.680;5.976;2024-03-22T01:04:18;32.77;29.53;49.92;;
78837;Laerm;72468;51.680;5.976;2024-03-22T01:08:18;36.42;29.38;55.2;;
78837;Laerm;72468;51.680;5.976;2024-03-22T01:12:18;34.96;29.8;54.16;;
78837;Laerm;72468;51.680;5.976;2024-03-22T01:16:18;34.58;30.02;48.25;;
78837;Laerm;72468;51.680;5.976;2024-03-22T01:20:18;34.33;29.87;47.73;;
78837;Laerm;72468;51.680;5.976;2024-03-22T01:24:18;32.29;29.76;44.65;;
78837;Laerm;72468;51.680;5.976;2024-03-22T01:28:18;35.39;29.29;54.21;;
78837;Laerm;72468;51.680;5.976;2024-03-22T01:32:18;37.03;29.7;56.46;;
78837;Laerm;72468;51.680;5.976;2024-03-22T01:36:18;34.1;29.61;48.58;;
78837;Laerm;72468;51.680;5.976;2024-03-22T01:40:18;34.42;29.79;51.05;;
78837;Laerm;72468;51.680;5.976;2024-03-22T01:44:18;31.55;29.72;41.12;;
78837;Laerm;72468;51.680;5.976;2024-03-22T01:48:18;36.46;29.59;57.42;;
78837;Laerm;72468;51.680;5.976;2024-03-22T01:52:18;33.12;29.8;44.67;;
78837;Laerm;72468;51.680;5.976;2024-03-22T01:56:18;33.46;29.56;48.02;;
78837;Laerm;72468;51.680;5.976;2024-03-22T02:00:19;34.2;29.8;45.49;;
78837;Laerm;72468;51.680;5.976;2024-03-22T02:04:18;33.02;29.66;44.67;;
78837;Laerm;72468;51.680;5.976;2024-03-22T02:08:18;38.1;29.68;55.42;;
78837;Laerm;72468;51.680;5.976;2024-03-22T02:12:18;32.83;29.34;48.13;;
78837;Laerm;72468;51.680;5.976;2024-03-22T02:16:18;32.36;29.51;39.06;;
78837;Laerm;72468;51.680;5.976;2024-03-22T02:20:18;31.4;29.66;39.98;;
78837;Laerm;72468;51.680;5.976;2024-03-22T02:24:18;31.64;29.69;38.37;;
78837;Laerm;72468;51.680;5.976;2024-03-22T02:28:18;31.95;29.74;42.29;;
78837;Laerm;72468;51.680;5.976;2024-03-22T02:32:18;31.79;29.72;41.61;;
78837;Laerm;72468;51.680;5.976;2024-03-22T02:36:18;34.11;29.17;49.89;;
78837;Laerm;72468;51.680;5.976;2024-03-22T02:40:18;31.82;29.9;37.7;;
78837;Laerm;72468;51.680;5.976;2024-03-22T02:44:18;32.26;29.62;45.46;;
78837;Laerm;72468;51.680;5.976;2024-03-22T02:48:18;31.28;29.39;35.73;;
78837;Laerm;72468;51.680;5.976;2024-03-22T02:52:18;39.36;29.96;57.91;;
78837;Laerm;72468;51.680;5.976;2024-03-22T02:56:18;35.19;29.96;53.37;;
78837;Laerm;72468;51.680;5.976;2024-03-22T03:00:19;32.6;29.83;43.4;;
78837;Laerm;72468;51.680;5.976;2024-03-22T03:04:18;31.63;29.72;38.03;;
78837;Laerm;72468;51.680;5.976;2024-03-22T03:08:18;33.29;29.72;49.04;;
78837;Laerm;72468;51.680;5.976;2024-03-22T03:12:18;34.85;30.14;50.99;;
78837;Laerm;72468;51.680;5.976;2024-03-22T03:16:18;36.81;29.71;53.37;;
78837;Laerm;72468;51.680;5.976;2024-03-22T03:20:19;33.28;29.87;43.73;;
78837;Laerm;72468;51.680;5.976;2024-03-22T03:24:18;33.13;30.24;41.3;;
78837;Laerm;72468;51.680;5.976;2024-03-22T03:28:18;33.62;30.17;48.23;;
78837;Laerm;72468;51.680;5.976;2024-03-22T03:32:18;37.37;30.51;51.61;;
78837;Laerm;72468;51.680;5.976;2024-03-22T03:36:18;33.33;30.26;42.83;;
78837;Laerm;72468;51.680;5.976;2024-03-22T03:40:18;32.97;30.25;41.86;;
78837;Laerm;72468;51.680;5.976;2024-03-22T03:44:18;38.86;30.31;55.75;;
78837;Laerm;72468;51.680;5.976;2024-03-22T03:48:18;40.76;30.5;54.95;;
78837;Laerm;72468;51.680;5.976;2024-03-22T03:52:18;41.63;30.87;58.59;;
78837;Laerm;72468;51.680;5.976;2024-03-22T03:56:18;37.11;30.82;51.96;;
78837;Laerm;72468;51.680;5.976;2024-03-22T04:00:19;37.99;30.66;49.4;;
78837;Laerm;72468;51.680;5.976;2024-03-22T04:04:18;40.42;30.45;54.58;;
78837;Laerm;72468;51.680;5.976;2024-03-22T04:08:18;37.46;30.52;49.23;;
78837;Laerm;72468;51.680;5.976;2024-03-22T04:12:18;36.53;30.99;46.95;;
78837;Laerm;72468;51.680;5.976;2024-03-22T04:16:18;38.87;30.56;54.18;;
78837;Laerm;72468;51.680;5.976;2024-03-22T04:20:18;39.53;30.76;56.26;;
78837;Laerm;72468;51.680;5.976;2024-03-22T04:24:18;40.63;31.49;54.4;;
78837;Laerm;72468;51.680;5.976;2024-03-22T04:28:18;40.16;31.3;56.06;;
78837;Laerm;72468;51.680;5.976;2024-03-22T04:32:18;40.59;31.05;52.42;;
78837;Laerm;72468;51.680;5.976;2024-03-22T04:36:18;40.66;31.22;55.85;;
78837;Laerm;72468;51.680;5.976;2024-03-22T04:40:18;39.62;32;54.43;;
78837;Laerm;72468;51.680;5.976;2024-03-22T04:44:18;40.62;32.19;54.02;;
78837;Laerm;72468;51.680;5.976;2024-03-22T04:48:19;43.36;32.28;55.09;;
78837;Laerm;72468;51.680;5.976;2024-03-22T04:52:18;45.17;32.22;58.58;;
78837;Laerm;72468;51.680;5.976;2024-03-22T04:56:18;43.46;31.25;57.9;;
78837;Laerm;72468;51.680;5.976;2024-03-22T05:00:18;45.3;33.44;58.43;;
78837;Laerm;72468;51.680;5.976;2024-03-22T05:04:18;42.69;32.62;56.06;;
78837;Laerm;72468;51.680;5.976;2024-03-22T05:08:18;45.79;32.4;57.75;;
78837;Laerm;72468;51.680;5.976;2024-03-22T05:16:18;45.43;32.26;60.84;;
78837;Laerm;72468;51.680;5.976;2024-03-22T05:20:18;44.92;33.02;57.19;;
78837;Laerm;72468;51.680;5.976;2024-03-22T05:24:18;45.05;33.71;57.68;;
78837;Laerm;72468;51.680;5.976;2024-03-22T05:28:18;46.81;33.41;59.28;;
78837;Laerm;72468;51.680;5.976;2024-03-22T05:32:18;47.05;34.43;63.02;;
78837;Laerm;72468;51.680;5.976;2024-03-22T05:36:18;46.9;34.53;59.38;;
78837;Laerm;72468;51.680;5.976;2024-03-22T05:40:18;46.75;33.59;62.75;;
78837;Laerm;72468;51.680;5.976;2024-03-22T05:44:18;45.37;35.71;59.78;;
78837;Laerm;72468;51.680;5.976;2024-03-22T05:48:18;47.04;37.18;57.46;;
78837;Laerm;72468;51.680;5.976;2024-03-22T05:52:18;45.64;34.82;56.42;;
78837;Laerm;72468;51.680;5.976;2024-03-22T05:56:18;47.84;35.45;62.93;;
78837;Laerm;72468;51.680;5.976;2024-03-22T06:00:18;45.61;35.73;58.92;;
78837;Laerm;72468;51.680;5.976;2024-03-22T06:04:18;49.25;35.77;63.95;;
78837;Laerm;72468;51.680;5.976;2024-03-22T06:08:18;45.59;34.87;63.14;;
78837;Laerm;72468;51.680;5.976;2024-03-22T06:12:18;45.86;35.71;57.71;;
78837;Laerm;72468;51.680;5.976;2024-03-22T06:16:18;47.04;36.17;64;;
78837;Laerm;72468;51.680;5.976;2024-03-22T06:20:18;48.51;35.61;65.77;;
78837;Laerm;72468;51.680;5.976;2024-03-22T06:24:18;42.83;34;55.58;;
78837;Laerm;72468;51.680;5.976;2024-03-22T06:28:18;45.62;34.44;58.96;;
78837;Laerm;72468;51.680;5.976;2024-03-22T06:32:18;46.29;36.46;57.03;;
78837;Laerm;72468;51.680;5.976;2024-03-22T06:36:18;47.22;36.63;59.84;;
78837;Laerm;72468;51.680;5.976;2024-03-22T06:40:18;44.92;35.87;56.81;;
78837;Laerm;72468;51.680;5.976;2024-03-22T06:44:18;44.91;34.89;55.6;;
78837;Laerm;72468;51.680;5.976;2024-03-22T06:48:18;47.42;35.32;60.22;;
78837;Laerm;72468;51.680;5.976;2024-03-22T06:52:18;45.87;35.56;58.21;;
78837;Laerm;72468;51.680;5.976;2024-03-22T06:56:18;47.28;35.74;60.8;;
78837;Laerm;72468;51.680;5.976;2024-03-22T07:00:18;46.72;36.49;59.76;;
78837;Laerm;72468;51.680;5.976;2024-03-22T07:04:18;47.17;36.68;61.49;;
78837;Laerm;72468;51.680;5.976;2024-03-22T07:08:18;48.61;37.39;62.34;;
78837;Laerm;72468;51.680;5.976;2024-03-22T07:12:18;47.42;36.69;58.92;;
78837;Laerm;72468;51.680;5.976;2024-03-22T07:16:18;46.85;35.5;58.68;;
78837;Laerm;72468;51.680;5.976;2024-03-22T07:20:18;47.39;36.11;58.61;;
78837;Laerm;72468;51.680;5.976;2024-03-22T07:24:18;46.41;37.1;57.31;;
78837;Laerm;72468;51.680;5.976;2024-03-22T07:28:18;48.17;38.11;62.2;;
78837;Laerm;72468;51.680;5.976;2024-03-22T07:32:18;46.28;37.3;58.82;;
78837;Laerm;72468;51.680;5.976;2024-03-22T07:36:18;46.33;36.97;59.11;;
78837;Laerm;72468;51.680;5.976;2024-03-22T07:40:18;46.86;36.9;57.08;;
78837;Laerm;72468;51.680;5.976;2024-03-22T07:44:18;46.36;36.82;58.43;;
78837;Laerm;72468;51.680;5.976;2024-03-22T07:48:18;49.42;38.38;57.57;;
78837;Laerm;72468;51.680;5.976;2024-03-22T07:52:18;45.96;38.23;61.05;;
78837;Laerm;72468;51.680;5.976;2024-03-22T07:56:18;46.79;35.62;65.49;;
78837;Laerm;72468;51.680;5.976;2024-03-22T08:00:18;50.32;38.69;58.41;;
78837;Laerm;72468;51.680;5.976;2024-03-22T08:04:18;48.2;38.45;59.23;;
78837;Laerm;72468;51.680;5.976;2024-03-22T08:08:18;45.48;36.91;57.23;;
78837;Laerm;72468;51.680;5.976;2024-03-22T08:12:18;46.79;36.04;56.51;;
78837;Laerm;72468;51.680;5.976;2024-03-22T08:16:18;47.53;36.55;58.42;;
78837;Laerm;72468;51.680;5.976;2024-03-22T08:20:18;47.2;37.34;57.76;;
78837;Laerm;72468;51.680;5.976;2024-03-22T08:24:18;47.58;35.91;64.2;;
78837;Laerm;72468;51.680;5.976;2024-03-22T08:28:18;47.57;36.36;64.54;;
78837;Laerm;72468;51.680;5.976;2024-03-22T08:32:18;45.9;35.95;59.45;;
78837;Laerm;72468;51.680;5.976;2024-03-22T08:36:18;46.94;34.24;63.39;;
78837;Laerm;72468;51.680;5.976;2024-03-22T08:40:18;46.12;34.76;60.06;;
78837;Laerm;72468;51.680;5.976;2024-03-22T08:44:18;43.57;35.2;54.39;;
78837;Laerm;72468;51.680;5.976;2024-03-22T08:48:18;47.67;34.51;58.22;;
78837;Laerm;72468;51.680;5.976;2024-03-22T08:52:18;46.02;34.66;59.48;;
78837;Laerm;72468;51.680;5.976;2024-03-22T08:56:18;46.68;35.91;61.57;;
78837;Laerm;72468;51.680;5.976;2024-03-22T09:00:18;45.88;34.77;62.79;;
78837;Laerm;72468;51.680;5.976;2024-03-22T09:04:18;46.84;34.79;58.29;;
78837;Laerm;72468;51.680;5.976;2024-03-22T09:08:18;45.33;36.76;56.51;;
78837;Laerm;72468;51.680;5.976;2024-03-22T09:12:18;43.99;35.09;57.69;;
78837;Laerm;72468;51.680;5.976;2024-03-22T09:16:19;46.99;36.13;59.69;;
78837;Laerm;72468;51.680;5.976;2024-03-22T09:20:18;44.22;35.73;58.66;;
78837;Laerm;72468;51.680;5.976;2024-03-22T09:24:18;47.65;36.12;59.63;;
78837;Laerm;72468;51.680;5.976;2024-03-22T09:28:18;49.85;35.83;71.41;;
78837;Laerm;72468;51.680;5.976;2024-03-22T09:32:18;48.45;37.7;61.36;;
78837;Laerm;72468;51.680;5.976;2024-03-22T09:36:18;46.29;35.96;58.42;;
78837;Laerm;72468;51.680;5.976;2024-03-22T09:40:18;49.02;36.04;60.6;;
78837;Laerm;72468;51.680;5.976;2024-03-22T09:44:19;47.43;35.64;60.76;;
78837;Laerm;72468;51.680;5.976;2024-03-22T09:48:19;43.44;34.44;55.19;;
78837;Laerm;72468;51.680;5.976;2024-03-22T09:52:19;48.56;34.9;68.71;;
78837;Laerm;72468;51.680;5.976;2024-03-22T09:56:19;46.63;35.4;57.21;;
78837;Laerm;72468;51.680;5.976;2024-03-22T10:00:19;45.77;34.45;58.61;;
78837;Laerm;72468;51.680;5.976;2024-03-22T10:04:18;45.99;35.26;60.84;;
78837;Laerm;72468;51.680;5.976;2024-03-22T10:08:18;45.53;35.68;63.16;;
78837;Laerm;72468;51.680;5.976;2024-03-22T10:12:18;45.59;35.34;60.36;;
78837;Laerm;72468;51.680;5.976;2024-03-22T10:16:18;45.76;34.98;62.47;;
78837;Laerm;72468;51.680;5.976;2024-03-22T10:20:18;47.42;34.2;63.43;;
78837;Laerm;72468;51.680;5.976;2024-03-22T10:24:18;44.82;36;56.09;;
78837;Laerm;72468;51.680;5.976;2024-03-22T10:28:18;46.73;35.49;63.65;;
78837;Laerm;72468;51.680;5.976;2024-03-22T10:32:18;46.98;36.77;59.34;;
78837;Laerm;72468;51.680;5.976;2024-03-22T10:36:18;46.88;35.14;57.22;;
78837;Laerm;72468;51.680;5.976;2024-03-22T10:40:18;46.19;35.43;58.26;;
78837;Laerm;72468;51.680;5.976;2024-03-22T10:44:18;47.83;34.27;63.09;;
78837;Laerm;72468;51.680;5.976;2024-03-22T10:48:18;46.36;35.15;57.26;;
78837;Laerm;72468;51.680;5.976;2024-03-22T10:52:18;46.55;35.36;60.07;;
78837;Laerm;72468;51.680;5.976;2024-03-22T10:56:18;46.42;35.12;62.16;;
78837;Laerm;72468;51.680;5.976;2024-03-22T11:00:26;47.62;36.59;59.24;;
78837;Laerm;72468;51.680;5.976;2024-03-22T11:04:19;46.84;35.24;57.93;;
78837;Laerm;72468;51.680;5.976;2024-03-22T11:08:23;47.11;35.27;58.93;;
78837;Laerm;72468;51.680;5.976;2024-03-22T11:12:18;43.66;34.8;55.39;;
78837;Laerm;72468;51.680;5.976;2024-03-22T11:16:18;47.42;35.28;60.15;;
78837;Laerm;72468;51.680;5.976;2024-03-22T11:20:18;45.23;35.75;58.36;;
78837;Laerm;72468;51.680;5.976;2024-03-22T11:28:18;47.14;35.44;61.07;;
78837;Laerm;72468;51.680;5.976;2024-03-22T11:32:18;45.36;34.81;57.06;;
78837;Laerm;72468;51.680;5.976;2024-03-22T11:36:18;48.06;34.96;62.29;;
78837;Laerm;72468;51.680;5.976;2024-03-22T11:40:18;46.69;35.04;57.4;;
78837;Laerm;72468;51.680;5.976;2024-03-22T11:44:18;46.54;35.81;59.88;;
78837;Laerm;72468;51.680;5.976;2024-03-22T11:48:18;46.6;35.4;59.66;;
78837;Laerm;72468;51.680;5.976;2024-03-22T11:52:18;47.93;35.62;62.5;;
78837;Laerm;72468;51.680;5.976;2024-03-22T11:56:19;46.04;33.67;63.65;;
78837;Laerm;72468;51.680;5.976;2024-03-22T12:00:19;47.84;34.63;60.66;;
78837;Laerm;72468;51.680;5.976;2024-03-22T12:04:18;45.28;34.44;56.75;;
78837;Laerm;72468;51.680;5.976;2024-03-22T12:08:18;45.5;34.68;59.37;;
78837;Laerm;72468;51.680;5.976;2024-03-22T12:12:18;45.31;34.47;58.55;;
78837;Laerm;72468;51.680;5.976;2024-03-22T12:16:18;43.03;34.33;54.41;;
78837;Laerm;72468;51.680;5.976;2024-03-22T12:20:18;45.21;34.65;56.19;;
78837;Laerm;72468;51.680;5.976;2024-03-22T12:24:18;44.67;35.18;57.6;;
78837;Laerm;72468;51.680;5.976;2024-03-22T12:28:18;44.37;35.02;56;;
78837;Laerm;72468;51.680;5.976;2024-03-22T12:32:18;48.38;35.26;58.81;;
78837;Laerm;72468;51.680;5.976;2024-03-22T12:36:18;45.62;35.61;55.62;;
78837;Laerm;72468;51.680;5.976;2024-03-22T12:40:18;47.67;37.13;61.24;;
78837;Laerm;72468;51.680;5.976;2024-03-22T12:44:18;47.3;36.83;58.68;;
78837;Laerm;72468;51.680;5.976;2024-03-22T12:48:18;45.59;36.79;54.23;;
78837;Laerm;72468;51.680;5.976;2024-03-22T12:52:18;47.59;36.04;57.8;;
78837;Laerm;72468;51.680;5.976;2024-03-22T12:56:18;45.62;36.26;55.13;;
78837;Laerm;72468;51.680;5.976;2024-03-22T13:00:18;44.42;35.86;57.09;;
78837;Laerm;72468;51.680;5.976;2024-03-22T13:04:18;48.2;36.98;59.58;;
78837;Laerm;72468;51.680;5.976;2024-03-22T13:08:18;48.87;36.59;60.77;;
78837;Laerm;72468;51.680;5.976;2024-03-22T13:12:18;48.58;36.45;60.11;;
78837;Laerm;72468;51.680;5.976;2024-03-22T13:16:18;48.18;36.74;59.11;;
78837;Laerm;72468;51.680;5.976;2024-03-22T13:20:18;48.39;35.83;62.54;;
78837;Laerm;72468;51.680;5.976;2024-03-22T13:24:18;45.27;35.67;58.65;;
78837;Laerm;72468;51.680;5.976;2024-03-22T13:28:18;47.93;35.83;61.58;;
78837;Laerm;72468;51.680;5.976;2024-03-22T13:32:18;47.09;36.18;59.53;;
78837;Laerm;72468;51.680;5.976;2024-03-22T13:36:18;47.34;37.78;55.55;;
78837;Laerm;72468;51.680;5.976;2024-03-22T13:40:18;47.09;36.81;57.11;;
78837;Laerm;72468;51.680;5.976;2024-03-22T13:44:18;45.78;35.48;57.04;;
78837;Laerm;72468;51.680;5.976;2024-03-22T13:48:18;47.66;36.84;61.26;;
78837;Laerm;72468;51.680;5.976;2024-03-22T13:52:18;44.86;35.1;57.39;;
78837;Laerm;72468;51.680;5.976;2024-03-22T13:56:18;50.35;36.88;62.69;;
78837;Laerm;72468;51.680;5.976;2024-03-22T14:00:18;47.34;35.8;56.61;;
78837;Laerm;72468;51.680;5.976;2024-03-22T14:04:18;48.37;34.94;61.98;;
78837;Laerm;72468;51.680;5.976;2024-03-22T14:08:18;47.78;36.86;60.59;;
78837;Laerm;72468;51.680;5.976;2024-03-22T14:12:18;46.91;36.23;62.98;;
78837;Laerm;72468;51.680;5.976;2024-03-22T14:16:18;48.84;33.85;62.47;;
78837;Laerm;72468;51.680;5.976;2024-03-22T14:20:18;47.2;34.36;61.5;;
78837;Laerm;72468;51.680;5.976;2024-03-22T14:24:18;46.53;35.04;60.65;;
78837;Laerm;72468;51.680;5.976;2024-03-22T14:28:18;47.79;36.02;62.3;;
78837;Laerm;72468;51.680;5.976;2024-03-22T14:32:18;48.61;35.6;62.84;;
78837;Laerm;72468;51.680;5.976;2024-03-22T14:36:18;48.49;36.4;62.39;;
78837;Laerm;72468;51.680;5.976;2024-03-22T14:40:18;48.2;35.31;60.82;;
78837;Laerm;72468;51.680;5.976;2024-03-22T14:44:18;48.92;35.13;61.45;;
78837;Laerm;72468;51.680;5.976;2024-03-22T14:48:19;49.46;35.86;62.07;;
78837;Laerm;72468;51.680;5.976;2024-03-22T14:52:18;48.88;34.48;59.08;;
78837;Laerm;72468;51.680;5.976;2024-03-22T14:56:18;46.85;33.91;59.78;;
78837;Laerm;72468;51.680;5.976;2024-03-22T15:04:18;47.6;33.64;59.64;;
78837;Laerm;72468;51.680;5.976;2024-03-22T15:08:19;47.31;33.59;66.36;;
78837;Laerm;72468;51.680;5.976;2024-03-22T15:12:18;48.3;33.69;58.94;;
78837;Laerm;72468;51.680;5.976;2024-03-22T15:16:18;49.64;33.67;64.42;;
78837;Laerm;72468;51.680;5.976;2024-03-22T15:20:18;46.47;32.79;59.09;;
78837;Laerm;72468;51.680;5.976;2024-03-22T15:24:18;48.26;33.23;58.61;;
78837;Laerm;72468;51.680;5.976;2024-03-22T15:28:18;46.85;32.76;58.92;;
78837;Laerm;72468;51.680;5.976;2024-03-22T15:32:19;46.54;32.18;56.5;;
78837;Laerm;72468;51.680;5.976;2024-03-22T15:36:18;48.02;32.48;61.94;;
78837;Laerm;72468;51.680;5.976;2024-03-22T15:40:18;46.21;32.63;60.01;;
78837;Laerm;72468;51.680;5.976;2024-03-22T15:44:18;48.61;32.93;59.83;;
78837;Laerm;72468;51.680;5.976;2024-03-22T15:48:18;47.07;32.84;58.36;;
78837;Laerm;72468;51.680;5.976;2024-03-22T15:52:18;46.17;32.83;59.74;;
78837;Laerm;72468;51.680;5.976;2024-03-22T15:56:18;46.46;32.05;63.9;;
78837;Laerm;72468;51.680;5.976;2024-03-22T16:00:18;47.94;33.95;59.65;;
78837;Laerm;72468;51.680;5.976;2024-03-22T16:04:18;50.02;34.32;61.41;;
78837;Laerm;72468;51.680;5.976;2024-03-22T16:08:18;46.98;34.64;62.71;;
78837;Laerm;72468;51.680;5.976;2024-03-22T16:12:18;49.38;33.92;73.24;;
78837;Laerm;72468;51.680;5.976;2024-03-22T16:16:18;49;34.17;66.2;;
78837;Laerm;72468;51.680;5.976;2024-03-22T16:20:18;45.25;33.08;58.92;;
78837;Laerm;72468;51.680;5.976;2024-03-22T16:24:18;44.9;32.42;58.63;;
78837;Laerm;72468;51.680;5.976;2024-03-22T16:28:18;46.92;33.11;65.47;;
78837;Laerm;72468;51.680;5.976;2024-03-22T16:32:18;46.06;32;66.06;;
78837;Laerm;72468;51.680;5.976;2024-03-22T16:36:18;48.39;33.13;66.05;;
78837;Laerm;72468;51.680;5.976;2024-03-22T16:40:19;48.29;33.03;65.06;;
78837;Laerm;72468;51.680;5.976;2024-03-22T16:44:18;46.72;32.56;69.91;;
78837;Laerm;72468;51.680;5.976;2024-03-22T16:48:18;46.57;32.41;65.16;;
78837;Laerm;72468;51.680;5.976;2024-03-22T16:52:18;46.16;32.46;58.29;;
78837;Laerm;72468;51.680;5.976;2024-03-22T16:56:18;47.15;33.36;59.61;;
78837;Laerm;72468;51.680;5.976;2024-03-22T17:00:18;45.52;32.2;68.99;;
78837;Laerm;72468;51.680;5.976;2024-03-22T17:04:18;46.14;31.68;58.94;;
78837;Laerm;72468;51.680;5.976;2024-03-22T17:08:18;45.25;31.5;57.6;;
78837;Laerm;72468;51.680;5.976;2024-03-22T17:12:18;47.87;32.73;68.61;;
78837;Laerm;72468;51.680;5.976;2024-03-22T17:16:18;46.73;31.81;63.12;;
78837;Laerm;72468;51.680;5.976;2024-03-22T17:20:18;46.08;32.3;67.82;;
78837;Laerm;72468;51.680;5.976;2024-03-22T17:24:18;49.16;32.1;73.86;;
78837;Laerm;72468;51.680;5.976;2024-03-22T17:28:18;44.55;31.7;57.09;;
78837;Laerm;72468;51.680;5.976;2024-03-22T17:32:18;44.79;31.59;57.04;;
78837;Laerm;72468;51.680;5.976;2024-03-22T17:36:18;44.82;31.55;57.63;;
78837;Laerm;72468;51.680;5.976;2024-03-22T17:40:19;42.85;30.92;56.82;;
78837;Laerm;72468;51.680;5.976;2024-03-22T17:44:18;44.69;31.68;57.69;;
78837;Laerm;72468;51.680;5.976;2024-03-22T17:48:18;45.07;31.37;57.33;;
78837;Laerm;72468;51.680;5.976;2024-03-22T17:52:18;45.13;31.67;59.38;;
78837;Laerm;72468;51.680;5.976;2024-03-22T17:56:19;47.65;31.66;68.67;;
78837;Laerm;72468;51.680;5.976;2024-03-22T18:00:18;45.3;31.91;65.63;;
78837;Laerm;72468;51.680;5.976;2024-03-22T18:04:18;43.89;31.51;62.82;;
78837;Laerm;72468;51.680;5.976;2024-03-22T18:08:18;48.79;32.85;73.86;;
78837;Laerm;72468;51.680;5.976;2024-03-22T18:12:18;47.44;33.51;67.91;;
78837;Laerm;72468;51.680;5.976;2024-03-22T18:16:18;45.63;31.92;63.06;;
78837;Laerm;72468;51.680;5.976;2024-03-22T18:20:18;45.8;31.57;67.34;;
78837;Laerm;72468;51.680;5.976;2024-03-22T18:24:18;45;32.11;62.98;;
78837;Laerm;72468;51.680;5.976;2024-03-22T18:28:18;48.43;32.11;76.17;;
78837;Laerm;72468;51.680;5.976;2024-03-22T18:32:18;45.99;31.92;67.6;;
78837;Laerm;72468;51.680;5.976;2024-03-22T18:36:18;43.69;32.01;57.93;;
78837;Laerm;72468;51.680;5.976;2024-03-22T18:40:18;43.11;30.45;65.99;;
78837;Laerm;72468;51.680;5.976;2024-03-22T18:44:18;42.02;31.47;56.97;;
78837;Laerm;72468;51.680;5.976;2024-03-22T18:48:18;43.75;31.42;58.84;;
78837;Laerm;72468;51.680;5.976;2024-03-22T18:52:18;48.97;31.7;66.9;;
78837;Laerm;72468;51.680;5.976;2024-03-22T18:56:18;42.6;31.29;58.73;;
78837;Laerm;72468;51.680;5.976;2024-03-22T19:00:18;44.95;30.95;70.47;;
78837;Laerm;72468;51.680;5.976;2024-03-22T19:04:18;43.19;30.55;62.73;;
78837;Laerm;72468;51.680;5.976;2024-03-22T19:08:18;43.5;30.61;65.07;;
78837;Laerm;72468;51.680;5.976;2024-03-22T19:12:18;42.21;30.66;58.49;;
78837;Laerm;72468;51.680;5.976;2024-03-22T19:16:18;38.2;30.29;57.1;;
78837;Laerm;72468;51.680;5.976;2024-03-22T19:20:18;44.55;30.32;61.31;;
78837;Laerm;72468;51.680;5.976;2024-03-22T19:24:18;45.07;30.98;61.27;;
78837;Laerm;72468;51.680;5.976;2024-03-22T19:28:18;42.27;29.24;67.5;;
78837;Laerm;72468;51.680;5.976;2024-03-22T19:32:18;43.24;29.3;57.25;;
78837;Laerm;72468;51.680;5.976;2024-03-22T19:36:18;45.1;30.03;65.79;;
78837;Laerm;72468;51.680;5.976;2024-03-22T19:40:18;42.52;30.57;60.07;;
78837;Laerm;72468;51.680;5.976;2024-03-22T19:44:18;42.89;29;58.99;;
78837;Laerm;72468;51.680;5.976;2024-03-22T19:48:19;44.77;29.55;59.51;;
78837;Laerm;72468;51.680;5.976;2024-03-22T19:52:18;43.82;30.63;59.5;;
78837;Laerm;72468;51.680;5.976;2024-03-22T19:56:18;38.49;30.22;58.39;;
78837;Laerm;72468;51.680;5.976;2024-03-22T20:00:18;45.84;30.24;70.44;;
78837;Laerm;72468;51.680;5.976;2024-03-22T20:04:18;41.06;28.66;59.54;;
78837;Laerm;72468;51.680;5.976;2024-03-22T20:08:18;40.15;29.87;57.01;;
78837;Laerm;72468;51.680;5.976;2024-03-22T20:12:18;39.58;29.92;55.58;;
78837;Laerm;72468;51.680;5.976;2024-03-22T20:16:18;41.25;30.06;56.97;;
78837;Laerm;72468;51.680;5.976;2024-03-22T20:20:18;44.98;29.9;65.64;;
78837;Laerm;72468;51.680;5.976;2024-03-22T20:24:18;46.68;30.04;63.97;;
78837;Laerm;72468;51.680;5.976;2024-03-22T20:28:18;39.65;28.72;60.94;;
78837;Laerm;72468;51.680;5.976;2024-03-22T20:32:18;40.18;29.71;60.11;;
